createdAt,value
2024-05-09T00:00:41.335Z,8.2
2024-05-09T00:01:44.818Z,8.1
2024-05-09T00:02:47.004Z,8.1
2024-05-09T00:03:49.469Z,8.1
2024-05-09T00:04:52.275Z,8.1
2024-05-09T00:05:54.684Z,8.1
2024-05-09T00:06:56.603Z,8
2024-05-09T00:07:58.472Z,8
2024-05-09T00:09:00.667Z,8
2024-05-09T00:10:03.143Z,8
2024-05-09T00:11:27.295Z,7.9
2024-05-09T00:12:29.747Z,7.9
2024-05-09T00:13:32.016Z,7.9
2024-05-09T00:14:33.710Z,7.9
2024-05-09T00:15:37.292Z,7.9
2024-05-09T00:16:39.296Z,7.8
2024-05-09T00:17:41.776Z,7.8
2024-05-09T00:18:45.025Z,7.8
2024-05-09T00:19:47.417Z,7.8
2024-05-09T00:20:49.795Z,7.8
2024-05-09T00:21:51.970Z,7.7
2024-05-09T00:22:53.663Z,7.7
2024-05-09T00:23:55.783Z,7.7
2024-05-09T00:24:57.274Z,7.7
2024-05-09T00:25:58.948Z,7.7
2024-05-09T00:27:00.882Z,7.7
2024-05-09T00:28:02.424Z,7.6
2024-05-09T00:29:04.261Z,7.6
2024-05-09T00:30:11.487Z,7.6
2024-05-09T00:31:38.121Z,7.6
2024-05-09T00:32:39.968Z,7.6
2024-05-09T00:33:43.176Z,7.6
2024-05-09T00:34:46.107Z,7.6
2024-05-09T00:35:48.276Z,7.6
2024-05-09T00:36:49.745Z,7.6
2024-05-09T00:37:51.465Z,7.6
2024-05-09T00:38:53.348Z,7.6
2024-05-09T00:39:54.930Z,7.5
2024-05-09T00:40:56.458Z,7.5
2024-05-09T00:41:58.345Z,7.5
2024-05-09T00:43:00.079Z,7.5
2024-05-09T00:44:01.694Z,7.5
2024-05-09T00:45:04.040Z,7.5
2024-05-09T00:46:05.586Z,7.5
2024-05-09T00:47:07.547Z,7.5
2024-05-09T00:48:13.963Z,7.5
2024-05-09T00:49:23.895Z,7.5
2024-05-09T00:50:37.320Z,7.5
2024-05-09T00:51:41.828Z,7.4
2024-05-09T00:52:43.650Z,7.4
2024-05-09T00:53:45.712Z,7.4
2024-05-09T00:54:47.874Z,7.4
2024-05-09T00:55:49.592Z,7.4
2024-05-09T00:56:51.836Z,7.4
2024-05-09T00:57:53.573Z,7.4
2024-05-09T00:58:55.587Z,7.4
2024-05-09T00:59:57.745Z,7.4
2024-05-09T01:00:59.581Z,7.4
2024-05-09T01:02:02.062Z,7.4
2024-05-09T01:03:05.758Z,7.4
2024-05-09T01:04:10.182Z,7.4
2024-05-09T01:05:13.228Z,7.4
2024-05-09T01:06:15.886Z,7.3
2024-05-09T01:07:18.016Z,7.3
2024-05-09T01:08:19.581Z,7.3
2024-05-09T01:09:21.544Z,7.3
2024-05-09T01:10:34.396Z,7.3
2024-05-09T01:11:38.945Z,7.3
2024-05-09T01:12:41.345Z,7.3
2024-05-09T01:13:43.083Z,7.2
2024-05-09T01:14:45.241Z,7.2
2024-05-09T01:15:46.767Z,7.2
2024-05-09T01:16:48.441Z,7.2
2024-05-09T01:17:51.439Z,7.1
2024-05-09T01:18:54.602Z,7.1
2024-05-09T01:19:57.326Z,7.1
2024-05-09T01:20:59.587Z,7
2024-05-09T01:22:01.760Z,7
2024-05-09T01:23:03.408Z,7
2024-05-09T01:24:05.567Z,6.9
2024-05-09T01:25:07.007Z,6.9
2024-05-09T01:26:08.533Z,6.9
2024-05-09T01:27:10.413Z,6.9
2024-05-09T01:28:12.026Z,6.8
2024-05-09T01:29:13.828Z,6.8
2024-05-09T01:30:27.760Z,6.8
2024-05-09T01:31:40.312Z,6.8
2024-05-09T01:32:42.360Z,6.8
2024-05-09T01:33:45.439Z,6.7
2024-05-09T01:34:48.664Z,6.7
2024-05-09T01:35:50.672Z,6.7
2024-05-09T01:36:52.383Z,6.7
2024-05-09T01:37:53.987Z,6.7
2024-05-09T01:38:56.041Z,6.6
2024-05-09T01:39:57.510Z,6.6
2024-05-09T01:40:59.198Z,6.6
2024-05-09T01:42:01.378Z,6.6
2024-05-09T01:43:02.870Z,6.6
2024-05-09T01:44:04.662Z,6.5
2024-05-09T01:45:06.868Z,6.5
2024-05-09T01:46:08.449Z,6.5
2024-05-09T01:47:10.059Z,6.5
2024-05-09T01:48:13.272Z,6.4
2024-05-09T01:49:16.332Z,6.4
2024-05-09T01:50:36.954Z,6.4
2024-05-09T01:51:45.388Z,6.4
2024-05-09T01:52:46.963Z,6.4
2024-05-09T01:53:48.879Z,6.4
2024-05-09T01:54:50.424Z,6.4
2024-05-09T01:55:52.449Z,6.3
2024-05-09T01:56:54.319Z,6.3
2024-05-09T01:57:55.857Z,6.3
2024-05-09T01:58:57.407Z,6.3
2024-05-09T01:59:59.579Z,6.3
2024-05-09T02:01:01.426Z,6.3
2024-05-09T02:02:04.551Z,6.3
2024-05-09T02:03:07.924Z,6.3
2024-05-09T02:04:13.214Z,6.3
2024-05-09T02:05:16.630Z,6.3
2024-05-09T02:06:19.341Z,6.2
2024-05-09T02:07:20.883Z,6.2
2024-05-09T02:08:22.888Z,6.2
2024-05-09T02:09:24.925Z,6.2
2024-05-09T02:10:33.424Z,6.2
2024-05-09T02:11:35.861Z,6.2
2024-05-09T02:12:38.244Z,6.2
2024-05-09T02:13:39.720Z,6.1
2024-05-09T02:14:41.349Z,6.1
2024-05-09T02:15:42.854Z,6.1
2024-05-09T02:16:44.608Z,6.1
2024-05-09T02:17:47.230Z,6.1
2024-05-09T02:18:50.044Z,6.1
2024-05-09T02:19:52.968Z,6.1
2024-05-09T02:20:54.975Z,6
2024-05-09T02:21:57.056Z,6
2024-05-09T02:22:58.585Z,6
2024-05-09T02:24:00.421Z,6
2024-05-09T02:25:01.905Z,5.9
2024-05-09T02:26:03.520Z,5.9
2024-05-09T02:27:05.781Z,5.9
2024-05-09T02:28:07.815Z,5.9
2024-05-09T02:29:09.474Z,5.9
2024-05-09T02:30:26.354Z,5.8
2024-05-09T02:31:44.423Z,5.8
2024-05-09T02:32:47.245Z,5.8
2024-05-09T02:33:50.907Z,5.8
2024-05-09T02:34:54.233Z,5.8
2024-05-09T02:35:56.393Z,5.7
2024-05-09T02:36:57.923Z,5.7
2024-05-09T02:37:59.864Z,5.7
2024-05-09T02:39:02.807Z,5.7
2024-05-09T02:40:09.094Z,5.7
2024-05-09T02:41:38.366Z,5.7
2024-05-09T02:42:40.777Z,5.7
2024-05-09T02:43:42.244Z,5.7
2024-05-09T02:44:44.211Z,5.7
2024-05-09T02:45:45.652Z,5.7
2024-05-09T02:46:47.266Z,5.7
2024-05-09T02:47:50.241Z,5.7
2024-05-09T02:48:53.418Z,5.7
2024-05-09T02:49:55.879Z,5.6
2024-05-09T02:50:57.670Z,5.6
2024-05-09T02:51:59.735Z,5.6
2024-05-09T02:53:01.562Z,5.6
2024-05-09T02:54:03.718Z,5.6
2024-05-09T02:55:05.222Z,5.6
2024-05-09T02:56:06.985Z,5.6
2024-05-09T02:57:09.212Z,5.6
2024-05-09T02:58:11.132Z,5.6
2024-05-09T02:59:13.274Z,5.6
2024-05-09T03:00:26.658Z,5.5
2024-05-09T03:01:45.102Z,5.5
2024-05-09T03:02:48.146Z,5.5
2024-05-09T03:03:51.419Z,5.5
2024-05-09T03:04:54.739Z,5.5
2024-05-09T03:05:57.277Z,5.5
2024-05-09T03:06:58.806Z,5.5
2024-05-09T03:08:00.592Z,5.5
2024-05-09T03:09:02.999Z,5.5
2024-05-09T03:10:14.794Z,5.5
2024-05-09T03:11:39.320Z,5.5
2024-05-09T03:12:42.076Z,5.6
2024-05-09T03:13:44.290Z,5.6
2024-05-09T03:14:46.238Z,5.6
2024-05-09T03:15:47.762Z,5.6
2024-05-09T03:16:49.315Z,5.6
2024-05-09T03:17:51.934Z,5.6
2024-05-09T03:18:54.919Z,5.6
2024-05-09T03:19:57.314Z,5.6
2024-05-09T03:20:59.837Z,5.7
2024-05-09T03:22:02.276Z,5.7
2024-05-09T03:23:04.858Z,5.7
2024-05-09T03:24:08.149Z,5.7
2024-05-09T03:25:09.653Z,5.7
2024-05-09T03:26:11.304Z,5.7
2024-05-09T03:27:13.581Z,5.7
2024-05-09T03:28:15.216Z,5.8
2024-05-09T03:29:16.843Z,5.8
2024-05-09T03:30:38.332Z,5.8
2024-05-09T03:31:45.136Z,5.8
2024-05-09T03:32:47.699Z,5.8
2024-05-09T03:33:51.409Z,5.9
2024-05-09T03:34:54.392Z,5.9
2024-05-09T03:35:56.437Z,5.9
2024-05-09T03:36:57.943Z,5.9
2024-05-09T03:37:59.619Z,6
2024-05-09T03:39:01.778Z,6
2024-05-09T03:40:04.205Z,6
2024-05-09T03:41:28.167Z,6
2024-05-09T03:42:30.587Z,6.1
2024-05-09T03:43:32.259Z,6.1
2024-05-09T03:44:33.960Z,6.1
2024-05-09T03:45:36.012Z,6.1
2024-05-09T03:46:37.449Z,6.1
2024-05-09T03:47:39.243Z,6.2
2024-05-09T03:48:42.205Z,6.2
2024-05-09T03:49:44.526Z,6.2
2024-05-09T03:50:46.685Z,6.2
2024-05-09T03:51:49.466Z,6.2
2024-05-09T03:52:51.182Z,6.2
2024-05-09T03:53:53.504Z,6.2
2024-05-09T03:54:54.992Z,6.2
2024-05-09T03:55:56.669Z,6.2
2024-05-09T03:56:58.809Z,6.2
2024-05-09T03:58:00.439Z,6.2
2024-05-09T03:59:02.581Z,6.2
2024-05-09T04:00:12.172Z,6.2
2024-05-09T04:01:41.895Z,6.2
2024-05-09T04:02:44.750Z,6.2
2024-05-09T04:03:47.577Z,6.2
2024-05-09T04:04:50.829Z,6.2
2024-05-09T04:05:53.452Z,6.2
2024-05-09T04:06:55.206Z,6.2
2024-05-09T04:07:56.892Z,6.2
2024-05-09T04:08:59.347Z,6.2
2024-05-09T04:10:00.931Z,6.2
2024-05-09T04:11:02.773Z,6.2
2024-05-09T04:12:05.752Z,6.2
2024-05-09T04:13:08.865Z,6.2
2024-05-09T04:14:10.445Z,6.2
2024-05-09T04:15:13.880Z,6.2
2024-05-09T04:16:15.330Z,6.2
2024-05-09T04:17:17.335Z,6.2
2024-05-09T04:18:19.611Z,6.2
2024-05-09T04:19:22.239Z,6.2
2024-05-09T04:20:39.568Z,6.2
2024-05-09T04:21:43.564Z,6.2
2024-05-09T04:22:45.497Z,6.2
2024-05-09T04:23:47.656Z,6.2
2024-05-09T04:24:49.803Z,6.2
2024-05-09T04:25:51.338Z,6.3
2024-05-09T04:26:53.533Z,6.3
2024-05-09T04:27:56.136Z,6.3
2024-05-09T04:28:57.728Z,6.3
2024-05-09T04:30:00.123Z,6.3
2024-05-09T04:31:01.920Z,6.3
2024-05-09T04:32:03.693Z,6.3
2024-05-09T04:33:08.344Z,6.4
2024-05-09T04:34:17.554Z,6.4
2024-05-09T04:35:19.988Z,6.4
2024-05-09T04:36:22.407Z,6.4
2024-05-09T04:37:24.178Z,6.4
2024-05-09T04:38:26.001Z,6.4
2024-05-09T04:39:28.148Z,6.5
2024-05-09T04:40:36.636Z,6.5
2024-05-09T04:41:40.512Z,6.5
2024-05-09T04:42:42.523Z,6.5
2024-05-09T04:43:44.191Z,6.5
2024-05-09T04:44:46.276Z,6.5
2024-05-09T04:45:48.497Z,6.5
2024-05-09T04:46:50.212Z,6.5
2024-05-09T04:47:52.661Z,6.5
2024-05-09T04:48:55.564Z,6.6
2024-05-09T04:49:57.876Z,6.6
2024-05-09T04:51:00.037Z,6.6
2024-05-09T04:52:02.053Z,6.6
2024-05-09T04:53:04.012Z,6.7
2024-05-09T04:54:22.335Z,6.7
2024-05-09T04:55:39.122Z,6.7
2024-05-09T04:56:42.274Z,6.7
2024-05-09T04:57:44.491Z,6.7
2024-05-09T04:58:46.174Z,6.7
2024-05-09T04:59:48.230Z,6.8
2024-05-09T05:00:50.070Z,6.8
2024-05-09T05:01:52.459Z,6.8
2024-05-09T05:02:57.507Z,6.9
2024-05-09T05:04:00.345Z,6.9
2024-05-09T05:05:03.416Z,6.9
2024-05-09T05:06:06.146Z,7
2024-05-09T05:07:08.002Z,7
2024-05-09T05:08:09.760Z,7.1
2024-05-09T05:09:11.970Z,7.1
2024-05-09T05:10:29.340Z,7.1
2024-05-09T05:11:38.767Z,7.1
2024-05-09T05:12:41.115Z,7.1
2024-05-09T05:13:42.751Z,7.2
2024-05-09T05:14:44.376Z,7.2
2024-05-09T05:15:45.834Z,7.2
2024-05-09T05:16:47.490Z,7.2
2024-05-09T05:17:50.278Z,7.2
2024-05-09T05:18:53.705Z,7.2
2024-05-09T05:19:56.341Z,7.2
2024-05-09T05:20:59.323Z,7.2
2024-05-09T05:22:01.464Z,7.2
2024-05-09T05:23:03.194Z,7.2
2024-05-09T05:24:05.476Z,7.2
2024-05-09T05:25:07.341Z,7.3
2024-05-09T05:26:08.982Z,7.3
2024-05-09T05:27:11.141Z,7.3
2024-05-09T05:28:12.657Z,7.3
2024-05-09T05:29:17.186Z,7.4
2024-05-09T05:30:34.164Z,7.4
2024-05-09T05:31:37.038Z,7.4
2024-05-09T05:32:39.717Z,7.5
2024-05-09T05:33:42.667Z,7.5
2024-05-09T05:34:45.155Z,7.5
2024-05-09T05:35:47.210Z,7.5
2024-05-09T05:36:49.144Z,7.5
2024-05-09T05:37:50.856Z,7.5
2024-05-09T05:38:53.075Z,7.5
2024-05-09T05:39:55.346Z,7.5
2024-05-09T05:40:57.290Z,7.5
2024-05-09T05:41:59.510Z,7.5
2024-05-09T05:43:01.090Z,7.5
2024-05-09T05:44:02.953Z,7.5
2024-05-09T05:45:09.729Z,7.5
2024-05-09T05:46:11.513Z,7.5
2024-05-09T05:47:13.242Z,7.5
2024-05-09T05:48:16.946Z,7.6
2024-05-09T05:49:21.595Z,7.6
2024-05-09T05:50:36.238Z,7.6
2024-05-09T05:51:41.145Z,7.7
2024-05-09T05:52:42.708Z,7.7
2024-05-09T05:53:44.377Z,7.7
2024-05-09T05:54:46.513Z,7.7
2024-05-09T05:55:48.510Z,7.8
2024-05-09T05:56:50.635Z,7.8
2024-05-09T05:57:52.415Z,7.8
2024-05-09T05:58:54.347Z,7.8
2024-05-09T05:59:56.547Z,7.9
2024-05-09T06:00:59.266Z,7.9
2024-05-09T06:02:01.954Z,7.9
2024-05-09T06:03:04.402Z,7.9
2024-05-09T06:04:08.108Z,7.9
2024-05-09T06:05:10.763Z,8
2024-05-09T06:06:13.329Z,8
2024-05-09T06:07:15.662Z,8
2024-05-09T06:08:17.316Z,8.1
2024-05-09T06:09:19.448Z,8.1
2024-05-09T06:10:30.582Z,8.1
2024-05-09T06:11:44.310Z,8.2
2024-05-09T06:12:46.754Z,8.2
2024-05-09T06:13:48.457Z,8.2
2024-05-09T06:14:50.588Z,8.3
2024-05-09T06:15:52.266Z,8.3
2024-05-09T06:16:58.383Z,8.3
2024-05-09T06:18:01.444Z,8.3
2024-05-09T06:19:05.271Z,8.4
2024-05-09T06:20:20.684Z,8.4
2024-05-09T06:21:40.093Z,8.4
2024-05-09T06:22:41.599Z,8.5
2024-05-09T06:23:43.268Z,8.5
2024-05-09T06:24:45.309Z,8.5
2024-05-09T06:25:46.909Z,8.6
2024-05-09T06:26:49.277Z,8.6
2024-05-09T06:27:50.880Z,8.6
2024-05-09T06:28:52.549Z,8.6
2024-05-09T06:29:54.642Z,8.7
2024-05-09T06:30:56.098Z,8.7
2024-05-09T06:32:00.627Z,8.7
2024-05-09T06:33:04.481Z,8.8
2024-05-09T06:34:08.559Z,8.8
2024-05-09T06:35:11.762Z,8.8
2024-05-09T06:36:13.787Z,8.8
2024-05-09T06:37:15.313Z,8.8
2024-05-09T06:38:16.857Z,8.8
2024-05-09T06:39:19.016Z,8.9
2024-05-09T06:40:34.256Z,8.9
2024-05-09T06:41:42.322Z,8.9
2024-05-09T06:42:44.359Z,9
2024-05-09T06:43:46.061Z,9.1
2024-05-09T06:44:48.387Z,9.1
2024-05-09T06:45:50.207Z,9.2
2024-05-09T06:46:52.127Z,9.2
2024-05-09T06:48:01.349Z,9.2
2024-05-09T06:49:04.752Z,9.2
2024-05-09T06:50:23.155Z,9.2
2024-05-09T06:51:41.229Z,9.2
2024-05-09T06:52:42.702Z,9.3
2024-05-09T06:53:44.340Z,9.3
2024-05-09T06:54:46.318Z,9.4
2024-05-09T06:55:48.067Z,9.5
2024-05-09T06:56:50.247Z,9.5
2024-05-09T06:57:51.784Z,9.6
2024-05-09T06:58:53.958Z,9.7
2024-05-09T06:59:56.102Z,9.8
2024-05-09T07:00:58.312Z,9.9
2024-05-09T07:02:00.066Z,9.9
2024-05-09T07:03:06.143Z,10
2024-05-09T07:04:09.680Z,10.2
2024-05-09T07:05:12.671Z,10.3
2024-05-09T07:06:15.586Z,10.5
2024-05-09T07:07:17.731Z,10.7
2024-05-09T07:08:19.893Z,10.9
2024-05-09T07:09:22.073Z,11.1
2024-05-09T07:10:34.643Z,11.4
2024-05-09T07:11:39.963Z,11.6
2024-05-09T07:12:42.555Z,11.9
2024-05-09T07:13:44.074Z,12.1
2024-05-09T07:14:46.137Z,12.4
2024-05-09T07:15:48.407Z,12.6
2024-05-09T07:16:50.154Z,12.8
2024-05-09T07:17:53.161Z,13.1
2024-05-09T07:18:56.393Z,13.2
2024-05-09T07:19:59.306Z,13.4
2024-05-09T07:21:01.955Z,13.6
2024-05-09T07:22:04.295Z,13.9
2024-05-09T07:23:05.992Z,14.1
2024-05-09T07:24:08.032Z,14.3
2024-05-09T07:25:09.478Z,14.5
2024-05-09T07:26:11.108Z,14.7
2024-05-09T07:27:14.221Z,15
2024-05-09T07:28:16.324Z,15.2
2024-05-09T07:29:18.946Z,15.4
2024-05-09T07:30:33.354Z,15.6
2024-05-09T07:31:37.063Z,15.8
2024-05-09T07:32:39.029Z,16
2024-05-09T07:33:42.034Z,16.2
2024-05-09T07:34:44.441Z,16.4
2024-05-09T07:35:46.833Z,16.5
2024-05-09T07:36:48.792Z,16.5
2024-05-09T07:37:50.374Z,16.6
2024-05-09T07:38:52.759Z,16.7
2024-05-09T07:39:55.162Z,16.9
2024-05-09T07:40:56.759Z,17
2024-05-09T07:41:58.839Z,17.1
2024-05-09T07:43:00.358Z,17.2
2024-05-09T07:44:01.868Z,17.3
2024-05-09T07:45:42.809Z,17.4
2024-05-09T07:53:34.089Z,17.4
2024-05-09T07:54:58.908Z,17.4
2024-05-09T07:56:02.123Z,17.4
2024-05-09T07:57:05.240Z,17.5
2024-05-09T07:58:07.627Z,17.5
2024-05-09T07:59:09.668Z,17.6
2024-05-09T08:00:17.642Z,17.7
2024-05-09T08:01:34.066Z,17.8
2024-05-09T08:02:36.746Z,17.9
2024-05-09T08:03:39.323Z,17.9
2024-05-09T08:04:42.286Z,18
2024-05-09T08:05:44.864Z,18
2024-05-09T08:06:47.115Z,18
2024-05-09T08:07:49.111Z,18
2024-05-09T08:08:50.801Z,18
2024-05-09T08:09:52.483Z,18
2024-05-09T08:10:54.722Z,18
2024-05-09T08:11:56.990Z,18
2024-05-09T08:12:59.331Z,18.1
2024-05-09T08:14:01.419Z,18.2
2024-05-09T08:15:02.914Z,18.3
2024-05-09T08:16:04.703Z,18.4
2024-05-09T08:17:07.744Z,18.5
2024-05-09T08:18:10.889Z,18.5
2024-05-09T08:19:14.367Z,18.5
2024-05-09T08:20:30.985Z,18.6
2024-05-09T08:21:37.493Z,18.8
2024-05-09T08:22:39.542Z,18.9
2024-05-09T08:23:41.053Z,18.9
2024-05-09T08:24:42.766Z,19
2024-05-09T08:25:44.885Z,19
2024-05-09T08:26:46.400Z,19.1
2024-05-09T08:27:47.916Z,19.1
2024-05-09T08:28:49.802Z,19.2
2024-05-09T08:29:51.276Z,19.3
2024-05-09T08:30:53.446Z,19.4
2024-05-09T08:31:56.245Z,19.6
2024-05-09T08:32:59.092Z,19.7
2024-05-09T08:34:02.008Z,19.7
2024-05-09T08:35:04.725Z,19.7
2024-05-09T08:36:07.000Z,19.7
2024-05-09T08:37:21.246Z,19.7
2024-05-09T08:38:40.847Z,19.7
2024-05-09T08:39:42.509Z,19.6
2024-05-09T08:40:45.036Z,19.6
2024-05-09T08:41:47.562Z,19.6
2024-05-09T08:42:49.474Z,19.6
2024-05-09T08:43:51.755Z,19.6
2024-05-09T08:44:53.232Z,19.6
2024-05-09T08:45:54.878Z,19.7
2024-05-09T08:46:56.832Z,19.8
2024-05-09T08:47:58.577Z,19.8
2024-05-09T08:49:01.488Z,19.8
2024-05-09T08:50:10.917Z,19.8
2024-05-09T08:51:41.446Z,19.8
2024-05-09T08:52:43.733Z,19.8
2024-05-09T08:53:45.200Z,19.8
2024-05-09T08:54:46.831Z,19.8
2024-05-09T08:55:49.202Z,19.8
2024-05-09T08:56:50.707Z,19.7
2024-05-09T08:57:52.662Z,19.7
2024-05-09T08:58:54.871Z,19.7
2024-05-09T08:59:56.341Z,19.7
2024-05-09T09:00:58.154Z,19.7
2024-05-09T09:02:00.605Z,19.8
2024-05-09T09:03:03.354Z,19.8
2024-05-09T09:04:05.935Z,19.8
2024-05-09T09:05:09.158Z,19.8
2024-05-09T09:06:12.512Z,19.8
2024-05-09T09:07:14.241Z,19.8
2024-05-09T09:08:16.519Z,19.8
2024-05-09T09:09:18.009Z,19.9
2024-05-09T09:10:32.166Z,19.9
2024-05-09T09:11:35.828Z,20
2024-05-09T09:12:37.888Z,20
2024-05-09T09:13:39.836Z,20
2024-05-09T09:14:41.454Z,20.1
2024-05-09T09:15:43.071Z,20.1
2024-05-09T09:16:45.167Z,20.1
2024-05-09T09:17:46.946Z,20.1
2024-05-09T09:18:49.567Z,20.2
2024-05-09T09:19:52.366Z,20.2
2024-05-09T09:20:54.526Z,20.3
2024-05-09T09:21:56.731Z,20.4
2024-05-09T09:22:58.926Z,20.4
2024-05-09T09:24:00.431Z,20.5
2024-05-09T09:25:02.087Z,20.5
2024-05-09T09:26:04.265Z,20.5
2024-05-09T09:27:05.879Z,20.4
2024-05-09T09:28:07.784Z,20.4
2024-05-09T09:29:11.434Z,20.4
2024-05-09T09:30:35.294Z,20.4
2024-05-09T09:31:40.604Z,20.4
2024-05-09T09:32:42.510Z,20.5
2024-05-09T09:33:45.366Z,20.5
2024-05-09T09:34:48.780Z,20.6
2024-05-09T09:35:50.931Z,20.7
2024-05-09T09:37:48.898Z,22.6
2024-05-09T09:38:50.390Z,22.6
2024-05-09T09:39:52.666Z,22.6
2024-05-09T09:40:54.838Z,22.6
2024-05-09T09:41:57.157Z,22.6
2024-05-09T09:42:58.880Z,22.6
2024-05-09T09:44:01.219Z,22.5
2024-05-09T09:45:06.118Z,22.4
2024-05-09T09:46:12.713Z,22.3
2024-05-09T09:47:15.450Z,22.2
2024-05-09T09:48:17.944Z,22.2
2024-05-09T09:49:20.495Z,22.2
2024-05-09T09:50:34.087Z,22.2
2024-05-09T09:51:37.199Z,22.2
2024-05-09T09:52:39.332Z,22.2
2024-05-09T09:53:40.806Z,22.2
2024-05-09T09:54:42.356Z,22.1
2024-05-09T09:55:45.076Z,22.1
2024-05-09T09:56:46.611Z,22
2024-05-09T09:57:48.234Z,21.9
2024-05-09T09:58:50.190Z,21.9
2024-05-09T09:59:51.676Z,21.9
2024-05-09T10:00:53.572Z,22
2024-05-09T10:01:56.793Z,22
2024-05-09T10:02:59.505Z,22.1
2024-05-09T10:04:03.556Z,22.2
2024-05-09T10:05:06.588Z,22.2
2024-05-09T10:06:09.058Z,22.2
2024-05-09T10:07:11.391Z,22.1
2024-05-09T10:08:14.049Z,22.1
2024-05-09T10:09:15.649Z,22.1
2024-05-09T10:10:30.265Z,22
2024-05-09T10:11:49.304Z,21.9
2024-05-09T10:13:02.859Z,21.9
2024-05-09T10:14:05.098Z,21.9
2024-05-09T10:15:06.761Z,22
2024-05-09T10:16:08.529Z,22
2024-05-09T10:17:10.986Z,22.1
2024-05-09T10:18:15.095Z,22.1
2024-05-09T10:19:18.883Z,22.2
2024-05-09T10:20:28.279Z,22.2
2024-05-09T10:21:35.285Z,22.2
2024-05-09T10:22:37.849Z,22.2
2024-05-09T10:23:39.340Z,22.1
2024-05-09T10:24:41.050Z,22
2024-05-09T10:25:43.094Z,21.9
2024-05-09T10:26:45.902Z,21.8
2024-05-09T10:27:47.409Z,21.8
2024-05-09T10:28:49.420Z,21.7
2024-05-09T10:29:50.895Z,21.6
2024-05-09T10:30:52.460Z,21.5
2024-05-09T10:31:55.469Z,21.5
2024-05-09T10:32:57.490Z,21.5
2024-05-09T10:34:00.717Z,21.5
2024-05-09T10:35:04.213Z,21.5
2024-05-09T10:36:06.678Z,21.5
2024-05-09T10:37:08.817Z,21.5
2024-05-09T10:38:10.998Z,21.5
2024-05-09T10:39:12.490Z,21.5
2024-05-09T10:40:28.748Z,21.5
2024-05-09T10:41:34.736Z,21.6
2024-05-09T10:42:36.611Z,21.6
2024-05-09T10:43:38.226Z,21.7
2024-05-09T10:44:39.757Z,21.7
2024-05-09T10:45:41.310Z,21.7
2024-05-09T10:46:43.174Z,21.7
2024-05-09T10:47:44.930Z,21.6
2024-05-09T10:48:48.579Z,21.5
2024-05-09T10:49:52.400Z,21.5
2024-05-09T10:50:54.922Z,21.5
2024-05-09T10:51:56.666Z,21.5
2024-05-09T10:52:58.806Z,21.5
2024-05-09T10:54:00.287Z,21.5
2024-05-09T10:55:05.949Z,21.5
2024-05-09T10:56:08.166Z,21.5
2024-05-09T10:57:09.885Z,21.5
2024-05-09T10:58:11.539Z,21.4
2024-05-09T10:59:14.093Z,21.4
2024-05-09T11:00:30.504Z,21.4
2024-05-09T11:01:38.787Z,21.4
2024-05-09T11:02:41.486Z,21.4
2024-05-09T11:03:44.568Z,21.4
2024-05-09T11:04:47.677Z,21.4
2024-05-09T11:05:50.319Z,21.4
2024-05-09T11:06:52.759Z,21.4
2024-05-09T11:07:54.927Z,21.4
2024-05-09T11:08:56.731Z,21.4
2024-05-09T11:09:58.432Z,21.4
2024-05-09T11:11:00.839Z,21.4
2024-05-09T11:12:02.515Z,21.4
2024-05-09T11:13:05.048Z,21.4
2024-05-09T11:14:07.143Z,21.4
2024-05-09T11:15:08.618Z,21.4
2024-05-09T11:16:10.243Z,21.4
2024-05-09T11:17:12.396Z,21.4
2024-05-09T11:18:14.762Z,21.4
2024-05-09T11:19:18.368Z,21.4
2024-05-09T11:20:30.220Z,21.4
2024-05-09T11:21:38.323Z,21.3
2024-05-09T11:22:40.371Z,21.2
2024-05-09T11:23:42.213Z,21.1
2024-05-09T11:24:43.859Z,21.1
2024-05-09T11:25:45.796Z,21
2024-05-09T11:26:47.474Z,20.9
2024-05-09T11:27:49.186Z,20.8
2024-05-09T11:28:51.406Z,20.8
2024-05-09T11:29:52.886Z,20.7
2024-05-09T11:30:54.669Z,20.6
2024-05-09T11:31:57.040Z,20.6
2024-05-09T11:32:59.610Z,20.5
2024-05-09T11:34:02.481Z,20.5
2024-05-09T11:35:04.414Z,20.4
2024-05-09T11:36:05.926Z,20.4
2024-05-09T11:37:07.793Z,20.3
2024-05-09T11:38:09.854Z,20.3
2024-05-09T11:39:11.331Z,20.3
2024-05-09T11:40:25.388Z,20.3
2024-05-09T11:41:36.769Z,20.3
2024-05-09T11:42:38.463Z,20.3
2024-05-09T11:43:40.539Z,20.3
2024-05-09T11:44:42.064Z,20.3
2024-05-09T11:45:43.879Z,20.3
2024-05-09T11:46:45.878Z,20.4
2024-05-09T11:47:47.773Z,20.5
2024-05-09T11:48:50.982Z,20.5
2024-05-09T11:49:54.015Z,20.6
2024-05-09T11:50:56.657Z,20.7
2024-05-09T11:51:58.386Z,20.7
2024-05-09T11:53:00.559Z,20.8
2024-05-09T11:54:02.036Z,20.8
2024-05-09T11:55:03.707Z,20.8
2024-05-09T11:56:05.837Z,20.7
2024-05-09T11:57:07.534Z,20.7
2024-05-09T11:58:09.401Z,20.7
2024-05-09T11:59:11.952Z,20.6
2024-05-09T12:00:29.267Z,20.6
2024-05-09T12:01:39.705Z,20.5
2024-05-09T12:02:42.175Z,20.5
2024-05-09T12:03:44.170Z,20.5
2024-05-09T12:04:46.915Z,20.5
2024-05-09T12:05:50.638Z,20.5
2024-05-09T12:06:53.368Z,20.5
2024-05-09T12:07:55.629Z,20.5
2024-05-09T12:08:57.108Z,20.6
2024-05-09T12:09:58.809Z,20.6
2024-05-09T12:11:01.474Z,20.6
2024-05-09T12:12:04.046Z,20.7
2024-05-09T12:13:07.823Z,20.7
2024-05-09T12:14:10.390Z,20.8
2024-05-09T12:15:11.899Z,20.9
2024-05-09T12:16:13.747Z,20.9
2024-05-09T12:17:16.521Z,20.9
2024-05-09T12:18:19.143Z,21
2024-05-09T12:19:21.534Z,21
2024-05-09T12:20:37.009Z,21
2024-05-09T12:21:42.287Z,21
2024-05-09T12:22:44.464Z,21.1
2024-05-09T12:23:46.044Z,21.1
2024-05-09T12:24:47.892Z,21.1
2024-05-09T12:25:49.989Z,21.1
2024-05-09T12:26:51.467Z,21.1
2024-05-09T12:27:53.148Z,21.1
2024-05-09T12:28:55.202Z,21.2
2024-05-09T12:29:56.886Z,21.2
2024-05-09T12:30:58.537Z,21.1
2024-05-09T12:32:00.825Z,21.1
2024-05-09T12:33:03.311Z,21.1
2024-05-09T12:34:06.609Z,21.1
2024-05-09T12:35:09.131Z,21.1
2024-05-09T12:36:10.668Z,21.1
2024-05-09T12:37:12.656Z,21.1
2024-05-09T12:38:15.878Z,21
2024-05-09T12:39:17.460Z,21
2024-05-09T12:40:34.957Z,20.9
2024-05-09T12:41:41.447Z,20.9
2024-05-09T12:42:43.455Z,20.9
2024-05-09T12:43:45.693Z,21
2024-05-09T12:44:47.188Z,21
2024-05-09T12:45:48.949Z,21.1
2024-05-09T12:46:51.069Z,21.1
2024-05-09T12:47:52.774Z,21.1
2024-05-09T12:48:55.593Z,21.2
2024-05-09T12:49:58.869Z,21.3
2024-05-09T12:51:00.935Z,21.4
2024-05-09T12:52:02.829Z,21.4
2024-05-09T12:53:05.607Z,21.4
2024-05-09T12:54:07.232Z,21.5
2024-05-09T12:55:09.165Z,21.5
2024-05-09T12:56:11.934Z,21.5
2024-05-09T12:57:13.418Z,21.5
2024-05-09T12:58:15.023Z,21.5
2024-05-09T12:59:18.826Z,21.5
2024-05-09T13:00:31.807Z,21.5
2024-05-09T13:01:36.880Z,21.5
2024-05-09T13:02:39.737Z,21.4
2024-05-09T13:03:42.480Z,21.4
2024-05-09T13:04:45.437Z,21.3
2024-05-09T13:05:47.984Z,21.2
2024-05-09T13:06:50.416Z,21.2
2024-05-09T13:07:52.494Z,21.1
2024-05-09T13:08:54.064Z,21
2024-05-09T13:09:55.906Z,21
2024-05-09T13:10:57.938Z,20.9
2024-05-09T13:12:00.117Z,20.9
2024-05-09T13:13:02.735Z,20.8
2024-05-09T13:14:05.476Z,20.8
2024-05-09T13:15:07.068Z,20.8
2024-05-09T13:16:08.588Z,20.7
2024-05-09T13:17:10.745Z,20.7
2024-05-09T13:18:12.782Z,20.7
2024-05-09T13:19:15.072Z,20.7
2024-05-09T13:20:31.100Z,20.8
2024-05-09T13:21:38.815Z,20.8
2024-05-09T13:22:40.901Z,20.9
2024-05-09T13:23:42.392Z,21
2024-05-09T13:24:44.066Z,21.1
2024-05-09T13:25:46.145Z,21.1
2024-05-09T13:26:47.650Z,21.2
2024-05-09T13:27:49.240Z,21.1
2024-05-09T13:28:50.856Z,21.1
2024-05-09T13:29:52.317Z,21.1
2024-05-09T13:30:54.157Z,21.1
2024-05-09T13:31:56.482Z,21.1
2024-05-09T13:32:58.362Z,21.1
2024-05-09T13:34:01.160Z,21.2
2024-05-09T13:35:04.175Z,21.2
2024-05-09T13:36:05.674Z,21.3
2024-05-09T13:37:07.339Z,21.4
2024-05-09T13:38:09.670Z,21.4
2024-05-09T13:39:11.126Z,21.4
2024-05-09T13:40:14.881Z,21.4
2024-05-09T13:41:37.928Z,21.4
2024-05-09T13:42:39.617Z,21.4
2024-05-09T13:43:41.727Z,21.4
2024-05-09T13:44:43.255Z,21.4
2024-05-09T13:45:44.940Z,21.3
2024-05-09T13:46:47.404Z,21.4
2024-05-09T13:47:49.677Z,21.4
2024-05-09T13:48:53.082Z,21.4
2024-05-09T13:49:56.043Z,21.4
2024-05-09T13:50:57.552Z,21.5
2024-05-09T13:51:59.204Z,21.5
2024-05-09T13:53:01.087Z,21.4
2024-05-09T13:54:03.442Z,21.4
2024-05-09T13:55:05.368Z,21.3
2024-05-09T13:56:07.422Z,21.2
2024-05-09T13:57:08.939Z,21.2
2024-05-09T13:58:10.609Z,21.1
2024-05-09T13:59:12.689Z,21
2024-05-09T14:00:38.411Z,21
2024-05-09T14:01:51.327Z,21
2024-05-09T14:04:29.762Z,21
2024-05-09T14:05:33.247Z,21
2024-05-09T14:06:36.838Z,21
2024-05-09T14:07:38.867Z,21
2024-05-09T14:08:40.454Z,21
2024-05-09T14:09:42.160Z,21.1
2024-05-09T14:10:45.399Z,21.2
2024-05-09T14:11:48.418Z,21.2
2024-05-09T14:12:50.944Z,21.3
2024-05-09T14:13:53.045Z,21.4
2024-05-09T14:14:54.562Z,21.4
2024-05-09T14:15:56.978Z,21.5
2024-05-09T14:17:00.283Z,21.6
2024-05-09T14:18:02.948Z,21.6
2024-05-09T14:19:04.916Z,21.7
2024-05-09T14:20:13.934Z,21.8
2024-05-09T14:21:34.146Z,21.8
2024-05-09T14:22:36.303Z,21.9
2024-05-09T14:23:37.872Z,21.9
2024-05-09T14:24:39.411Z,22
2024-05-09T14:25:44.510Z,22.1
2024-05-09T14:26:53.900Z,22.2
2024-05-09T14:27:55.851Z,22.2
2024-05-09T14:28:58.447Z,22.1
2024-05-09T14:30:00.494Z,22.1
2024-05-09T14:31:02.252Z,22
2024-05-09T14:32:04.372Z,22
2024-05-09T14:33:08.153Z,21.9
2024-05-09T14:34:12.673Z,21.9
2024-05-09T14:35:15.467Z,21.8